createdAt,value
2018-11-07T00:02:17.560Z,99.90
2018-11-07T00:07:22.049Z,99.90
2018-11-07T00:12:26.485Z,99.90
2018-11-07T00:17:30.936Z,99.90
2018-11-07T00:22:35.635Z,99.90
2018-11-07T00:27:40.295Z,99.90
2018-11-07T00:32:44.744Z,99.90
2018-11-07T00:37:49.186Z,99.90
2018-11-07T00:42:53.657Z,99.90
2018-11-07T00:47:58.230Z,99.90
2018-11-07T00:53:02.657Z,99.90
2018-11-07T00:58:07.198Z,99.90
2018-11-07T01:03:11.597Z,99.90
2018-11-07T01:08:16.020Z,99.90
2018-11-07T01:13:20.447Z,99.90
2018-11-07T01:18:24.867Z,99.90
2018-11-07T01:23:29.297Z,99.90
2018-11-07T01:28:33.724Z,99.90
2018-11-07T01:33:38.165Z,99.90
2018-11-07T01:38:42.579Z,99.90
2018-11-07T01:43:46.989Z,99.90
2018-11-07T01:48:51.422Z,99.90
2018-11-07T01:53:55.841Z,99.90
2018-11-07T01:59:00.260Z,99.90
2018-11-07T02:04:04.737Z,99.90
2018-11-07T02:09:10.333Z,99.90
2018-11-07T02:14:14.752Z,99.90
2018-11-07T02:19:19.174Z,99.90
2018-11-07T02:24:23.632Z,99.90
2018-11-07T02:29:28.144Z,99.90
2018-11-07T02:34:32.610Z,99.90
2018-11-07T02:39:37.016Z,99.90
2018-11-07T02:44:41.565Z,99.90
2018-11-07T02:49:45.989Z,99.90
2018-11-07T02:54:50.398Z,99.90
2018-11-07T02:59:54.952Z,99.90
2018-11-07T03:04:59.368Z,99.90
2018-11-07T03:10:03.829Z,99.90
2018-11-07T03:15:08.599Z,99.90
2018-11-07T03:20:13.815Z,99.90
2018-11-07T03:25:18.267Z,99.90
2018-11-07T03:30:22.736Z,99.90
2018-11-07T03:35:27.744Z,99.90
2018-11-07T03:40:32.161Z,99.90
2018-11-07T03:45:41.732Z,99.90
2018-11-07T03:50:46.184Z,99.90
2018-11-07T03:55:50.592Z,99.90
2018-11-07T04:00:55.195Z,99.90
2018-11-07T04:05:59.681Z,99.90
2018-11-07T04:11:04.104Z,99.90
2018-11-07T04:16:08.552Z,99.90
2018-11-07T04:21:12.972Z,99.90
2018-11-07T04:26:17.417Z,99.90
2018-11-07T04:31:21.906Z,99.90
2018-11-07T04:36:26.586Z,99.90
2018-11-07T04:41:31.008Z,99.90
2018-11-07T04:46:35.432Z,99.90
2018-11-07T04:51:39.860Z,99.90
2018-11-07T04:56:44.269Z,99.90
2018-11-07T05:01:48.724Z,99.90
2018-11-07T05:06:53.148Z,99.90
2018-11-07T05:11:57.896Z,99.90
2018-11-07T05:17:02.310Z,99.90
2018-11-07T05:22:06.744Z,99.90
2018-11-07T05:27:11.169Z,99.90
2018-11-07T05:32:15.592Z,99.90
2018-11-07T05:37:20.029Z,99.90
2018-11-07T05:42:24.462Z,99.90
2018-11-07T05:47:28.932Z,99.90
2018-11-07T05:52:33.465Z,99.90
2018-11-07T05:57:38.033Z,99.90
2018-11-07T06:02:42.578Z,99.90
2018-11-07T06:07:47.080Z,99.90
2018-11-07T06:12:51.513Z,99.90
2018-11-07T06:17:56.417Z,99.90
2018-11-07T06:23:00.969Z,99.90
2018-11-07T06:28:05.361Z,99.90
2018-11-07T06:33:09.864Z,99.90
2018-11-07T06:38:14.280Z,99.90
2018-11-07T06:43:18.805Z,99.90
2018-11-07T06:48:23.253Z,99.90
2018-11-07T06:53:27.672Z,99.90
2018-11-07T06:58:32.323Z,99.90
2018-11-07T07:03:36.789Z,99.90
2018-11-07T07:08:41.212Z,99.90
2018-11-07T07:13:45.641Z,99.90
2018-11-07T07:18:50.172Z,99.90
2018-11-07T07:23:54.605Z,99.90
2018-11-07T07:28:59.096Z,99.90
2018-11-07T07:34:03.540Z,99.90
2018-11-07T07:39:10.016Z,99.90
2018-11-07T07:44:14.428Z,99.90
2018-11-07T07:49:18.903Z,99.90
2018-11-07T07:54:23.353Z,99.90
2018-11-07T07:59:27.780Z,99.90
2018-11-07T08:04:32.244Z,99.90
2018-11-07T08:09:36.721Z,99.90
2018-11-07T08:14:41.148Z,99.90
2018-11-07T08:19:45.620Z,99.90
2018-11-07T08:24:50.065Z,99.90
2018-11-07T08:29:54.520Z,99.90
2018-11-07T08:34:59.053Z,99.90
2018-11-07T08:40:03.708Z,99.90
2018-11-07T08:45:09.137Z,99.90
2018-11-07T08:50:21.095Z,99.90
2018-11-07T08:55:28.291Z,99.90
2018-11-07T09:29:06.441Z,99.90
2018-11-07T09:34:10.875Z,99.90
2018-11-07T09:39:15.413Z,99.90
2018-11-07T09:44:19.848Z,99.90
2018-11-07T09:49:24.318Z,99.90
2018-11-07T09:54:28.749Z,99.90
2018-11-07T09:59:33.249Z,99.90
2018-11-07T10:04:37.715Z,99.90
2018-11-07T10:09:42.165Z,99.90
2018-11-07T10:14:46.615Z,99.90
2018-11-07T10:19:51.054Z,99.40
2018-11-07T10:24:55.525Z,99.10
2018-11-07T10:30:00.344Z,98.70
2018-11-07T10:35:04.981Z,98.20
2018-11-07T10:40:12.336Z,98.00
2018-11-07T10:45:16.792Z,97.50
2018-11-07T10:50:21.991Z,97.00
2018-11-07T10:55:26.433Z,96.40
2018-11-07T11:00:36.301Z,96.30
2018-11-07T11:05:40.965Z,96.50
2018-11-07T11:10:45.404Z,96.50
2018-11-07T11:15:49.857Z,96.40
2018-11-07T11:20:54.308Z,95.80
2018-11-07T11:25:58.807Z,95.40
2018-11-07T11:31:03.220Z,95.10
2018-11-07T11:36:07.656Z,94.60
2018-11-07T11:41:12.135Z,94.30
2018-11-07T11:50:03.574Z,93.80
2018-11-07T11:55:08.081Z,93.50
2018-11-07T12:00:16.008Z,93.50
2018-11-07T12:05:20.695Z,93.40
2018-11-07T12:10:26.328Z,93.40
2018-11-07T12:15:30.831Z,93.20
2018-11-07T12:20:35.300Z,92.90
2018-11-07T12:25:39.850Z,92.60
2018-11-07T12:30:44.356Z,92.40
2018-11-07T12:35:48.816Z,92.70
2018-11-07T12:40:53.267Z,92.80
2018-11-07T12:45:57.872Z,93.00
2018-11-07T12:51:02.449Z,92.60
2018-11-07T12:56:07.385Z,92.50
2018-11-07T13:01:11.909Z,92.90
2018-11-07T13:06:16.398Z,92.80
2018-11-07T13:11:20.921Z,92.50
2018-11-07T13:16:27.942Z,92.80
2018-11-07T13:21:35.319Z,92.80
2018-11-07T13:26:42.496Z,93.60
2018-11-07T13:31:47.261Z,93.40
2018-11-07T13:36:51.926Z,93.50
2018-11-07T13:41:56.419Z,93.80
2018-11-07T13:47:00.870Z,94.00
2018-11-07T13:52:05.842Z,94.70
2018-11-07T13:57:10.283Z,95.20
2018-11-07T14:02:14.766Z,96.00
2018-11-07T14:07:19.308Z,96.70
2018-11-07T14:12:23.857Z,97.20
2018-11-07T14:17:28.381Z,97.40
2018-11-07T14:22:32.925Z,97.90
2018-11-07T14:27:37.667Z,98.20
2018-11-07T14:32:45.962Z,98.50
2018-11-07T14:37:50.647Z,98.80
2018-11-07T14:42:55.212Z,99.10
2018-11-07T14:47:59.680Z,99.30
2018-11-07T14:53:04.186Z,99.70
2018-11-07T14:58:08.638Z,99.90
2018-11-07T15:03:13.153Z,99.90
2018-11-07T15:08:17.734Z,99.90
2018-11-07T15:13:22.141Z,99.90
2018-11-07T15:18:26.679Z,99.90
2018-11-07T15:23:31.497Z,99.90
2018-11-07T15:28:35.954Z,99.90
2018-11-07T15:33:40.405Z,99.90
2018-11-07T15:38:44.868Z,99.90
2018-11-07T15:43:49.332Z,99.90
2018-11-07T15:48:53.780Z,99.90
2018-11-07T15:53:58.213Z,99.90
2018-11-07T15:59:02.920Z,99.90
2018-11-07T16:04:07.393Z,99.90
2018-11-07T16:09:12.013Z,99.90
2018-11-07T16:14:16.471Z,99.90
2018-11-07T16:19:20.924Z,99.90
2018-11-07T16:24:25.372Z,99.90
2018-11-07T16:29:29.968Z,99.90
2018-11-07T16:34:34.406Z,99.90
2018-11-07T16:39:38.897Z,99.90
2018-11-07T16:44:43.372Z,99.90
2018-11-07T16:49:47.961Z,99.90
2018-11-07T16:54:52.438Z,99.90
2018-11-07T16:59:56.893Z,99.90
2018-11-07T17:05:01.525Z,99.90
2018-11-07T17:10:06.935Z,99.90
2018-11-07T17:15:11.484Z,99.90
2018-11-07T17:20:16.482Z,99.90
2018-11-07T17:25:21.001Z,99.90
2018-11-07T17:30:25.437Z,99.90
2018-11-07T17:35:30.705Z,99.90
2018-11-07T17:40:35.137Z,99.90
2018-11-07T17:45:39.581Z,99.90
2018-11-07T17:50:44.029Z,99.90
2018-11-07T17:55:48.496Z,99.90
2018-11-07T18:00:52.931Z,99.90
2018-11-07T18:05:57.517Z,99.90
2018-11-07T18:11:02.041Z,99.90
2018-11-07T18:16:06.696Z,99.90
2018-11-07T18:21:11.553Z,99.90
2018-11-07T18:26:15.996Z,99.90
2018-11-07T18:31:20.484Z,99.90
2018-11-07T18:36:24.932Z,99.90
2018-11-07T18:41:29.361Z,99.90
2018-11-07T18:46:33.823Z,99.90
2018-11-07T18:51:38.261Z,99.90
2018-11-07T18:56:42.729Z,99.90
2018-11-07T19:01:47.205Z,99.90
2018-11-07T19:06:51.714Z,99.90
2018-11-07T19:11:56.197Z,99.90
2018-11-07T19:17:00.739Z,99.90
2018-11-07T19:22:05.222Z,99.90
2018-11-07T19:27:09.684Z,99.90
2018-11-07T19:32:14.129Z,99.90
2018-11-07T19:37:18.545Z,99.90
2018-11-07T19:42:23.009Z,99.90
2018-11-07T19:47:27.437Z,99.90
2018-11-07T19:52:38.712Z,99.90
2018-11-07T19:57:44.871Z,99.90
2018-11-07T20:02:49.342Z,99.90
2018-11-07T20:07:53.839Z,99.90
2018-11-07T20:12:58.299Z,99.90
2018-11-07T20:18:02.775Z,99.90
2018-11-07T20:23:07.367Z,99.90
2018-11-07T20:28:11.861Z,99.90
2018-11-07T20:33:16.302Z,99.90
2018-11-07T20:38:20.869Z,99.90
2018-11-07T20:43:25.321Z,99.90
2018-11-07T20:48:29.767Z,99.90
2018-11-07T20:53:34.212Z,99.90
2018-11-07T20:58:38.753Z,99.90
2018-11-07T21:03:43.184Z,99.90
2018-11-07T21:08:47.646Z,99.90
2018-11-07T21:13:52.085Z,99.90
2018-11-07T21:18:56.536Z,99.90
2018-11-07T21:24:00.984Z,99.90
2018-11-07T21:29:05.539Z,99.90
2018-11-07T21:34:09.982Z,99.90
2018-11-07T21:39:14.458Z,99.90
2018-11-07T21:44:19.028Z,99.90
2018-11-07T21:49:23.462Z,99.90
2018-11-07T21:54:27.985Z,99.90
2018-11-07T21:59:32.416Z,99.90
2018-11-07T22:04:36.860Z,99.90
2018-11-07T22:09:41.442Z,99.90
2018-11-07T22:14:46.168Z,99.90
2018-11-07T22:19:50.697Z,99.90
2018-11-07T22:36:24.392Z,99.90
2018-11-07T22:41:28.827Z,99.90
2018-11-07T22:46:33.258Z,99.90
2018-11-07T22:51:37.681Z,99.90
2018-11-07T22:56:42.133Z,99.90
2018-11-07T23:01:46.566Z,99.90
2018-11-07T23:06:51.098Z,99.90
2018-11-07T23:11:55.539Z,99.90
2018-11-07T23:16:59.977Z,99.90
2018-11-07T23:22:04.485Z,99.90
2018-11-07T23:27:08.945Z,99.90
2018-11-07T23:32:13.379Z,99.90
2018-11-07T23:37:17.900Z,99.90
2018-11-07T23:42:22.377Z,99.90
2018-11-07T23:47:26.919Z,99.90
2018-11-07T23:52:36.764Z,99.90
2018-11-07T23:57:41.208Z,99.90
